createdAt,value
2019-05-26T00:01:28.703Z,73.70
2019-05-26T00:03:57.295Z,73.70
2019-05-26T00:06:25.799Z,73.70
2019-05-26T00:08:54.299Z,73.60
2019-05-26T00:11:22.887Z,73.70
2019-05-26T00:13:51.488Z,73.70
2019-05-26T00:16:20.062Z,73.90
2019-05-26T00:18:48.565Z,74.20
2019-05-26T00:21:17.090Z,75.30
2019-05-26T00:23:46.007Z,75.10
2019-05-26T00:26:14.559Z,75.20
2019-05-26T00:28:43.636Z,75.30
2019-05-26T00:31:12.127Z,75.20
2019-05-26T00:33:40.716Z,75.30
2019-05-26T00:36:11.166Z,75.60
2019-05-26T00:38:40.608Z,76.10
2019-05-26T00:41:09.110Z,76.70
2019-05-26T00:43:36.955Z,77.10
2019-05-26T00:46:05.577Z,77.60
2019-05-26T00:48:34.158Z,77.90
2019-05-26T00:51:02.802Z,77.90
2019-05-26T00:53:31.389Z,77.90
2019-05-26T00:55:59.946Z,78.10
2019-05-26T00:58:28.532Z,77.80
2019-05-26T01:00:57.175Z,77.70
2019-05-26T01:03:25.855Z,77.70
2019-05-26T01:05:54.430Z,77.90
2019-05-26T01:08:23.002Z,77.80
2019-05-26T01:10:51.559Z,78.00
2019-05-26T01:13:20.122Z,78.10
2019-05-26T01:15:48.703Z,78.10
2019-05-26T01:18:17.534Z,77.90
2019-05-26T01:20:46.093Z,77.90
2019-05-26T01:23:14.702Z,78.60
2019-05-26T01:25:43.675Z,77.50
2019-05-26T01:28:13.383Z,77.20
2019-05-26T01:30:41.972Z,77.10
2019-05-26T01:33:10.528Z,77.10
2019-05-26T01:35:40.722Z,77.20
2019-05-26T01:38:23.231Z,77.10
2019-05-26T01:40:42.820Z,77.20
2019-05-26T01:43:11.736Z,78.00
2019-05-26T01:45:40.239Z,77.40
2019-05-26T01:48:08.921Z,77.50
2019-05-26T01:50:37.518Z,77.70
2019-05-26T01:53:06.877Z,78.10
2019-05-26T01:55:35.593Z,78.30
2019-05-26T01:58:04.802Z,78.30
2019-05-26T02:00:33.400Z,78.50
2019-05-26T02:03:01.992Z,78.90
2019-05-26T02:05:31.575Z,79.10
2019-05-26T02:08:00.146Z,78.90
2019-05-26T02:10:28.859Z,79.10
2019-05-26T02:12:57.454Z,78.90
2019-05-26T02:15:27.787Z,79.10
2019-05-26T02:17:56.268Z,79.10
2019-05-26T02:20:25.090Z,79.20
2019-05-26T02:22:53.594Z,79.20
2019-05-26T02:25:22.402Z,79.10
2019-05-26T02:27:50.931Z,78.80
2019-05-26T02:30:19.918Z,79.40
2019-05-26T02:32:48.527Z,78.70
2019-05-26T02:35:17.513Z,78.60
2019-05-26T02:37:46.184Z,78.80
2019-05-26T02:40:15.239Z,78.80
2019-05-26T02:42:43.825Z,78.70
2019-05-26T02:45:17.576Z,79.00
2019-05-26T02:47:46.962Z,78.80
2019-05-26T02:50:16.846Z,78.30
2019-05-26T02:52:45.426Z,77.90
2019-05-26T02:55:14.637Z,77.40
2019-05-26T02:57:43.224Z,77.30
2019-05-26T03:00:13.620Z,76.90
2019-05-26T03:02:42.446Z,77.30
2019-05-26T03:05:12.072Z,77.90
2019-05-26T03:07:42.988Z,78.50
2019-05-26T03:10:14.321Z,78.90
2019-05-26T03:12:44.007Z,79.30
2019-05-26T03:15:14.236Z,79.40
2019-05-26T03:17:42.979Z,79.40
2019-05-26T03:20:13.562Z,79.00
2019-05-26T03:22:42.803Z,78.60
2019-05-26T03:25:12.503Z,78.20
2019-05-26T03:27:41.372Z,77.80
2019-05-26T03:30:09.422Z,77.50
2019-05-26T03:32:38.054Z,77.70
2019-05-26T03:35:08.356Z,78.60
2019-05-26T03:37:37.200Z,79.10
2019-05-26T03:40:08.149Z,79.20
2019-05-26T03:42:36.775Z,79.40
2019-05-26T03:45:07.565Z,79.20
2019-05-26T03:47:36.125Z,79.00
2019-05-26T03:50:06.752Z,78.90
2019-05-26T03:52:35.346Z,79.10
2019-05-26T03:55:05.751Z,78.70
2019-05-26T03:57:34.430Z,78.30
2019-05-26T04:00:04.802Z,77.50
2019-05-26T04:02:33.366Z,77.60
2019-05-26T04:05:01.974Z,78.10
2019-05-26T04:07:30.538Z,78.20
2019-05-26T04:10:05.280Z,78.20
2019-05-26T04:12:31.213Z,77.70
2019-05-26T04:14:59.777Z,77.00
2019-05-26T04:17:28.384Z,76.40
2019-05-26T04:19:57.001Z,75.80
2019-05-26T04:22:25.599Z,75.40
2019-05-26T04:24:54.170Z,75.20
2019-05-26T04:27:22.790Z,74.80
2019-05-26T04:29:51.401Z,74.40
2019-05-26T04:32:19.945Z,73.90
2019-05-26T04:34:48.537Z,73.70
2019-05-26T04:37:17.091Z,73.50
2019-05-26T04:39:45.693Z,73.80
2019-05-26T04:42:14.264Z,72.90
2019-05-26T04:44:43.666Z,72.60
2019-05-26T04:47:12.304Z,72.40
2019-05-26T04:49:40.930Z,72.40
2019-05-26T04:52:09.479Z,72.80
2019-05-26T04:54:38.038Z,73.30
2019-05-26T04:57:06.630Z,73.40
2019-05-26T04:59:35.244Z,73.70
2019-05-26T05:02:04.002Z,73.60
2019-05-26T05:04:32.548Z,72.90
2019-05-26T05:07:00.417Z,72.50
2019-05-26T05:09:28.967Z,72.60
2019-05-26T05:11:57.586Z,71.90
2019-05-26T05:14:26.139Z,71.50
2019-05-26T05:16:54.715Z,71.20
2019-05-26T05:19:23.271Z,71.00
2019-05-26T05:21:52.135Z,70.70
2019-05-26T05:24:19.959Z,70.10
2019-05-26T05:26:47.752Z,70.10
2019-05-26T05:29:16.261Z,70.20
2019-05-26T05:31:44.794Z,69.90
2019-05-26T05:34:13.328Z,69.70
2019-05-26T05:36:41.887Z,69.40
2019-05-26T05:39:10.487Z,69.20
2019-05-26T05:41:39.041Z,69.10
2019-05-26T05:44:07.634Z,68.80
2019-05-26T05:46:36.223Z,68.90
2019-05-26T05:49:04.855Z,68.80
2019-05-26T05:51:33.401Z,69.20
2019-05-26T05:54:02.026Z,69.40
2019-05-26T05:56:30.642Z,68.90
2019-05-26T05:58:59.178Z,68.60
2019-05-26T06:01:27.711Z,68.30
2019-05-26T06:03:56.219Z,67.90
2019-05-26T06:06:24.698Z,67.60
2019-05-26T06:08:53.217Z,67.40
2019-05-26T06:11:21.756Z,67.90
2019-05-26T06:13:50.282Z,67.70
2019-05-26T06:16:18.877Z,67.00
2019-05-26T06:18:47.437Z,65.90
2019-05-26T06:21:16.033Z,64.90
2019-05-26T06:23:44.643Z,64.10
2019-05-26T06:26:13.192Z,63.60
2019-05-26T06:28:41.752Z,62.60
2019-05-26T06:31:10.354Z,62.00
2019-05-26T06:33:38.933Z,60.90
2019-05-26T06:36:07.501Z,61.00
2019-05-26T06:38:36.064Z,60.60
2019-05-26T06:41:04.673Z,60.00
2019-05-26T06:43:33.253Z,59.50
2019-05-26T06:46:01.852Z,59.30
2019-05-26T06:48:32.435Z,59.70
2019-05-26T06:51:01.038Z,59.40
2019-05-26T06:53:29.630Z,59.30
2019-05-26T06:55:59.882Z,59.00
2019-05-26T06:58:28.499Z,58.90
2019-05-26T07:00:57.075Z,58.70
2019-05-26T07:03:25.642Z,58.70
2019-05-26T07:05:54.210Z,58.50
2019-05-26T07:08:22.698Z,58.10
2019-05-26T07:10:51.184Z,58.10
2019-05-26T07:13:19.712Z,57.50
2019-05-26T07:15:48.285Z,56.90
2019-05-26T07:18:16.849Z,56.70
2019-05-26T07:20:45.449Z,56.20
2019-05-26T07:23:14.212Z,56.10
2019-05-26T07:25:44.054Z,56.10
2019-05-26T07:28:12.584Z,55.70
2019-05-26T07:30:41.153Z,55.90
2019-05-26T07:33:09.748Z,53.60
2019-05-26T07:35:38.309Z,52.10
2019-05-26T07:38:06.862Z,52.00
2019-05-26T07:40:35.445Z,51.70
2019-05-26T07:43:04.172Z,50.80
2019-05-26T07:45:32.775Z,50.30
2019-05-26T07:48:01.406Z,50.10
2019-05-26T07:50:30.015Z,49.70
2019-05-26T07:52:58.595Z,50.10
2019-05-26T07:55:27.206Z,49.90
2019-05-26T07:57:55.833Z,49.50
2019-05-26T08:00:24.607Z,49.10
2019-05-26T08:02:53.169Z,48.80
2019-05-26T08:05:21.750Z,48.90
2019-05-26T08:07:50.310Z,49.30
2019-05-26T08:10:19.202Z,48.80
2019-05-26T08:12:47.833Z,48.90
2019-05-26T08:15:16.578Z,48.80
2019-05-26T08:17:45.174Z,48.70
2019-05-26T08:20:14.633Z,47.40
2019-05-26T08:22:43.201Z,46.70
2019-05-26T08:25:12.044Z,46.90
2019-05-26T08:27:40.608Z,47.20
2019-05-26T08:30:10.453Z,47.60
2019-05-26T08:32:39.014Z,47.00
2019-05-26T08:35:08.046Z,46.30
2019-05-26T08:37:36.632Z,46.50
2019-05-26T08:40:19.657Z,46.70
2019-05-26T08:42:49.494Z,46.80
2019-05-26T08:45:21.644Z,46.90
2019-05-26T08:47:49.212Z,47.00
2019-05-26T08:50:18.937Z,47.60
2019-05-26T08:52:47.523Z,47.30
2019-05-26T08:55:16.265Z,48.50
2019-05-26T08:57:44.751Z,48.60
2019-05-26T09:00:14.108Z,47.90
2019-05-26T09:02:43.172Z,47.10
2019-05-26T09:05:12.376Z,47.50
2019-05-26T09:07:41.925Z,47.60
2019-05-26T09:10:12.318Z,47.30
2019-05-26T09:12:40.796Z,48.00
2019-05-26T09:15:10.834Z,47.60
2019-05-26T09:17:39.371Z,48.20
2019-05-26T09:20:11.609Z,48.70
2019-05-26T09:22:39.451Z,48.90
2019-05-26T09:25:08.565Z,48.80
2019-05-26T09:27:37.053Z,48.40
2019-05-26T09:30:08.146Z,48.50
2019-05-26T09:32:38.075Z,49.30
2019-05-26T09:35:10.140Z,49.20
2019-05-26T09:37:38.676Z,48.30
2019-05-26T09:40:08.356Z,48.80
2019-05-26T09:42:36.889Z,48.80
2019-05-26T09:45:07.445Z,49.30
2019-05-26T09:47:35.983Z,48.60
2019-05-26T09:50:07.725Z,48.40
2019-05-26T09:52:36.827Z,49.20
2019-05-26T09:55:07.872Z,47.70
2019-05-26T09:57:36.697Z,47.70
2019-05-26T10:00:11.211Z,47.80
2019-05-26T10:02:39.787Z,47.00
2019-05-26T10:05:08.791Z,46.70
2019-05-26T10:07:42.184Z,47.50
2019-05-26T10:10:11.393Z,47.00
2019-05-26T10:12:41.163Z,46.90
2019-05-26T10:15:09.943Z,47.00
2019-05-26T10:17:38.507Z,47.60
2019-05-26T10:20:10.487Z,47.10
2019-05-26T10:22:39.085Z,46.50
2019-05-26T10:25:08.223Z,46.70
2019-05-26T10:27:36.744Z,46.80
2019-05-26T10:30:11.128Z,47.30
2019-05-26T10:32:39.848Z,45.80
2019-05-26T10:35:09.207Z,45.90
2019-05-26T10:37:37.737Z,45.30
2019-05-26T10:40:06.934Z,45.00
2019-05-26T10:42:35.501Z,44.30
2019-05-26T10:45:09.429Z,44.20
2019-05-26T10:47:38.176Z,43.90
2019-05-26T10:50:08.584Z,44.50
2019-05-26T10:52:37.171Z,43.90
2019-05-26T10:55:08.586Z,42.20
2019-05-26T10:57:37.114Z,41.80
2019-05-26T11:00:07.682Z,42.00
2019-05-26T11:02:36.260Z,42.10
2019-05-26T11:05:06.578Z,42.30
2019-05-26T11:07:35.087Z,42.40
2019-05-26T11:10:05.171Z,41.90
2019-05-26T11:12:33.751Z,42.00
2019-05-26T11:15:02.314Z,41.50
2019-05-26T11:17:30.888Z,40.90
2019-05-26T11:20:00.064Z,40.20
2019-05-26T11:22:28.540Z,40.60
2019-05-26T11:24:57.057Z,40.50
2019-05-26T11:27:25.642Z,41.20
2019-05-26T11:29:54.202Z,40.90
2019-05-26T11:32:22.841Z,41.90
2019-05-26T11:35:01.255Z,40.50
2019-05-26T11:37:23.183Z,41.30
2019-05-26T11:39:51.766Z,40.80
2019-05-26T11:42:20.360Z,40.70
2019-05-26T11:44:48.922Z,40.30
2019-05-26T11:47:17.475Z,39.70
2019-05-26T11:49:45.993Z,40.50
2019-05-26T11:52:14.563Z,40.80
2019-05-26T11:54:43.138Z,40.80
2019-05-26T11:57:11.754Z,39.50
2019-05-26T11:59:40.314Z,39.60
2019-05-26T12:02:11.110Z,38.90
2019-05-26T12:04:39.718Z,39.40
2019-05-26T12:07:08.278Z,39.00
2019-05-26T12:09:36.862Z,38.80
2019-05-26T12:12:05.949Z,38.70
2019-05-26T12:14:35.581Z,37.80
2019-05-26T12:17:04.401Z,36.50
2019-05-26T12:19:33.005Z,36.10
2019-05-26T12:22:01.588Z,35.80
2019-05-26T12:24:30.548Z,35.60
2019-05-26T12:26:59.113Z,35.70
2019-05-26T12:29:27.718Z,36.30
2019-05-26T12:31:56.285Z,37.10
2019-05-26T12:34:24.886Z,37.10
2019-05-26T12:36:53.454Z,37.40
2019-05-26T12:39:22.030Z,38.10
2019-05-26T12:41:50.598Z,38.80
2019-05-26T12:44:19.220Z,38.90
2019-05-26T12:46:47.825Z,39.40
2019-05-26T12:49:16.396Z,39.60
2019-05-26T12:51:45.168Z,38.90
2019-05-26T12:54:13.700Z,39.20
2019-05-26T12:56:42.301Z,39.60
2019-05-26T12:59:11.958Z,38.80
2019-05-26T13:01:40.595Z,39.00
2019-05-26T13:04:09.857Z,39.50
2019-05-26T13:06:38.558Z,39.70
2019-05-26T13:09:10.648Z,40.30
2019-05-26T13:11:39.308Z,40.60
2019-05-26T13:14:08.034Z,41.10
2019-05-26T13:16:36.652Z,41.30
2019-05-26T13:19:05.905Z,41.30
2019-05-26T13:21:34.511Z,41.70
2019-05-26T13:24:03.693Z,41.00
2019-05-26T13:26:33.920Z,41.50
2019-05-26T13:29:08.225Z,41.50
2019-05-26T13:31:36.889Z,41.70
2019-05-26T13:34:05.513Z,41.70
2019-05-26T13:36:34.502Z,41.10
2019-05-26T13:39:04.023Z,40.80
2019-05-26T13:41:32.574Z,40.70
2019-05-26T13:44:01.550Z,40.70
2019-05-26T13:46:30.216Z,40.60
2019-05-26T13:48:59.978Z,40.70
2019-05-26T13:51:30.221Z,40.40
2019-05-26T13:53:58.821Z,40.60
2019-05-26T13:56:28.631Z,40.40
2019-05-26T13:58:57.230Z,40.50
2019-05-26T14:01:27.628Z,40.40
2019-05-26T14:03:56.581Z,40.50
2019-05-26T14:06:25.655Z,40.60
2019-05-26T14:08:54.383Z,40.80
2019-05-26T14:11:23.542Z,40.20
2019-05-26T14:13:54.234Z,40.90
2019-05-26T14:16:23.961Z,40.90
2019-05-26T14:18:55.475Z,40.50
2019-05-26T14:21:24.932Z,41.10
2019-05-26T14:23:53.402Z,41.00
2019-05-26T14:26:21.904Z,40.60
2019-05-26T14:28:52.773Z,41.00
2019-05-26T14:31:22.933Z,41.10
2019-05-26T14:33:51.596Z,41.20
2019-05-26T14:36:20.150Z,41.20
2019-05-26T14:38:49.577Z,41.20
2019-05-26T14:41:18.216Z,41.20
2019-05-26T14:43:46.779Z,41.70
2019-05-26T14:46:15.271Z,42.20
2019-05-26T14:48:43.746Z,41.80
2019-05-26T14:51:12.282Z,41.80
2019-05-26T14:53:41.910Z,42.00
2019-05-26T14:56:10.489Z,42.20
2019-05-26T14:58:38.993Z,42.20
2019-05-26T15:01:07.628Z,43.00
2019-05-26T15:03:36.766Z,42.60
2019-05-26T15:06:06.299Z,42.50
2019-05-26T15:08:35.093Z,42.60
2019-05-26T15:11:03.579Z,42.60
2019-05-26T15:13:32.285Z,42.40
2019-05-26T15:16:09.359Z,41.60
2019-05-26T15:18:31.009Z,41.40
2019-05-26T15:20:59.477Z,41.50
2019-05-26T15:23:27.998Z,41.30
2019-05-26T15:25:56.538Z,41.00
2019-05-26T15:28:25.015Z,41.10
2019-05-26T15:30:53.611Z,40.90
2019-05-26T15:33:22.176Z,41.60
2019-05-26T15:35:51.205Z,41.20
2019-05-26T15:38:19.777Z,41.10
2019-05-26T15:40:48.307Z,41.30
2019-05-26T15:43:16.887Z,41.60
2019-05-26T15:45:45.450Z,41.30
2019-05-26T15:48:14.022Z,41.30
2019-05-26T15:50:42.571Z,40.60
2019-05-26T15:53:11.631Z,40.90
2019-05-26T15:55:40.506Z,40.50
2019-05-26T15:58:10.905Z,40.90
2019-05-26T16:00:39.723Z,40.90
2019-05-26T16:03:09.909Z,41.30
2019-05-26T16:05:38.585Z,41.80
2019-05-26T16:08:07.092Z,41.50
2019-05-26T16:10:36.548Z,42.00
2019-05-26T16:13:05.654Z,41.70
2019-05-26T16:15:34.171Z,42.00
2019-05-26T16:18:02.644Z,42.30
2019-05-26T16:20:31.291Z,42.10
2019-05-26T16:22:59.790Z,42.00
2019-05-26T16:25:29.526Z,42.10
2019-05-26T16:27:58.103Z,42.10
2019-05-26T16:30:26.585Z,41.90
2019-05-26T16:32:56.052Z,42.00
2019-05-26T16:35:24.580Z,41.70
2019-05-26T16:37:53.136Z,42.30
2019-05-26T16:40:22.022Z,42.00
2019-05-26T16:42:50.623Z,42.30
2019-05-26T16:45:19.452Z,42.20
2019-05-26T16:47:48.371Z,42.10
2019-05-26T16:50:17.446Z,41.90
2019-05-26T16:52:47.699Z,42.40
2019-05-26T16:55:17.840Z,42.00
2019-05-26T16:57:47.544Z,42.30
2019-05-26T17:00:16.658Z,42.20
2019-05-26T17:02:45.211Z,43.00
2019-05-26T17:05:14.238Z,42.50
2019-05-26T17:07:42.827Z,42.50
2019-05-26T17:10:11.396Z,42.80
2019-05-26T17:12:41.440Z,42.90
2019-05-26T17:15:13.267Z,43.00
2019-05-26T17:17:41.858Z,43.20
2019-05-26T17:20:12.153Z,44.00
2019-05-26T17:22:40.642Z,44.00
2019-05-26T17:25:09.876Z,44.20
2019-05-26T17:27:38.425Z,44.40
2019-05-26T17:30:08.079Z,44.10
2019-05-26T17:32:36.799Z,44.10
2019-05-26T17:35:08.965Z,44.00
2019-05-26T17:37:37.559Z,44.10
2019-05-26T17:40:11.096Z,44.40
2019-05-26T17:42:39.708Z,44.40
2019-05-26T17:45:09.012Z,44.00
2019-05-26T17:47:37.577Z,44.10
2019-05-26T17:50:09.467Z,44.60
2019-05-26T17:52:38.037Z,44.10
2019-05-26T17:55:09.915Z,44.70
2019-05-26T17:57:39.807Z,44.60
2019-05-26T18:00:15.076Z,44.30
2019-05-26T18:02:43.638Z,44.70
2019-05-26T18:05:14.381Z,44.50
2019-05-26T18:07:42.949Z,44.80
2019-05-26T18:10:11.817Z,45.30
2019-05-26T18:12:40.433Z,45.20
2019-05-26T18:15:09.796Z,45.00
2019-05-26T18:17:46.998Z,45.40
2019-05-26T18:20:09.707Z,45.70
2019-05-26T18:22:38.416Z,45.80
2019-05-26T18:25:09.721Z,46.20
2019-05-26T18:27:38.613Z,45.80
2019-05-26T18:30:10.238Z,46.00
2019-05-26T18:32:38.786Z,46.10
2019-05-26T18:35:09.706Z,46.50
2019-05-26T18:37:38.437Z,46.60
2019-05-26T18:40:08.243Z,46.90
2019-05-26T18:42:36.837Z,47.10
2019-05-26T18:45:09.286Z,47.30
2019-05-26T18:47:37.870Z,47.20
2019-05-26T18:50:07.562Z,47.40
2019-05-26T18:52:36.155Z,47.60
2019-05-26T18:55:05.373Z,47.20
2019-05-26T18:57:33.950Z,47.00
2019-05-26T19:00:05.809Z,47.60
2019-05-26T19:02:34.356Z,47.30
2019-05-26T19:05:03.011Z,47.50
2019-05-26T19:07:31.615Z,47.70
2019-05-26T19:10:00.197Z,48.20
2019-05-26T19:12:28.793Z,48.30
2019-05-26T19:14:57.377Z,48.10
2019-05-26T19:17:25.973Z,48.20
2019-05-26T19:19:57.246Z,48.30
2019-05-26T19:22:25.836Z,48.50
2019-05-26T19:24:54.407Z,48.40
2019-05-26T19:27:22.982Z,47.90
2019-05-26T19:29:51.577Z,47.90
2019-05-26T19:32:20.112Z,47.50
2019-05-26T19:34:48.613Z,47.40
2019-05-26T19:37:17.160Z,47.30
2019-05-26T19:39:47.098Z,47.30
2019-05-26T19:42:16.364Z,47.80
2019-05-26T19:44:44.832Z,47.40
2019-05-26T19:47:13.294Z,46.50
2019-05-26T19:49:43.830Z,46.50
2019-05-26T19:52:12.120Z,46.40
2019-05-26T19:54:40.704Z,46.20
2019-05-26T19:57:09.353Z,46.60
2019-05-26T19:59:37.897Z,46.70
2019-05-26T20:02:17.909Z,47.40
2019-05-26T20:04:40.674Z,46.90
2019-05-26T20:07:09.643Z,47.30
2019-05-26T20:09:38.163Z,47.20
2019-05-26T20:12:06.715Z,47.70
2019-05-26T20:14:36.964Z,47.30
2019-05-26T20:17:05.646Z,47.20
2019-05-26T20:19:35.635Z,47.10
2019-05-26T20:22:04.260Z,47.90
2019-05-26T20:24:34.376Z,47.00
2019-05-26T20:27:05.242Z,46.50
2019-05-26T20:29:33.524Z,46.30
2019-05-26T20:32:05.529Z,46.80
2019-05-26T20:34:36.077Z,46.60
2019-05-26T20:37:04.631Z,46.80
2019-05-26T20:39:34.962Z,46.90
2019-05-26T20:42:03.730Z,48.20
2019-05-26T20:44:32.578Z,47.10
2019-05-26T20:47:01.134Z,47.20
2019-05-26T20:49:44.500Z,47.80
2019-05-26T20:52:02.391Z,47.20
2019-05-26T20:54:30.869Z,47.50
2019-05-26T20:56:59.496Z,48.20
2019-05-26T20:59:28.043Z,47.30
2019-05-26T21:01:57.544Z,46.90
2019-05-26T21:04:26.045Z,47.30
2019-05-26T21:06:56.148Z,47.00
2019-05-26T21:09:24.678Z,47.30
2019-05-26T21:11:53.975Z,47.80
2019-05-26T21:14:22.537Z,47.50
2019-05-26T21:16:51.119Z,47.70
2019-05-26T21:19:19.688Z,47.70
2019-05-26T21:21:48.215Z,48.00
2019-05-26T21:24:17.017Z,48.00
2019-05-26T21:26:45.554Z,48.90
2019-05-26T21:29:14.417Z,48.60
2019-05-26T21:31:42.976Z,48.90
2019-05-26T21:34:11.530Z,48.70
2019-05-26T21:36:40.118Z,48.40
2019-05-26T21:39:08.744Z,48.80
2019-05-26T21:41:37.297Z,48.50
2019-05-26T21:44:05.877Z,48.70
2019-05-26T21:46:34.377Z,48.80
2019-05-26T21:49:03.051Z,49.50
2019-05-26T21:51:31.531Z,48.80
2019-05-26T21:54:00.040Z,48.90
2019-05-26T21:56:28.522Z,48.40
2019-05-26T21:58:57.016Z,48.70
2019-05-26T22:01:25.675Z,48.90
2019-05-26T22:03:54.251Z,48.80
2019-05-26T22:06:22.810Z,49.50
2019-05-26T22:08:51.292Z,49.00
2019-05-26T22:11:19.963Z,49.00
2019-05-26T22:13:48.520Z,49.00
2019-05-26T22:16:17.108Z,49.40
2019-05-26T22:18:45.728Z,49.50
2019-05-26T22:21:14.298Z,50.60
2019-05-26T22:23:42.905Z,49.10
2019-05-26T22:26:11.502Z,49.30
2019-05-26T22:28:40.063Z,49.60
2019-05-26T22:31:08.646Z,49.60
2019-05-26T22:33:37.230Z,49.50
2019-05-26T22:36:05.789Z,50.30
2019-05-26T22:38:34.360Z,49.80
2019-05-26T22:41:03.001Z,49.60
2019-05-26T22:43:31.584Z,50.20
2019-05-26T22:46:00.175Z,50.20
2019-05-26T22:48:28.751Z,50.40
2019-05-26T22:50:57.310Z,50.40
2019-05-26T22:53:25.866Z,50.60
2019-05-26T22:55:54.450Z,50.30
2019-05-26T22:58:23.063Z,50.40
2019-05-26T23:00:51.645Z,50.50
2019-05-26T23:03:20.162Z,50.20
2019-05-26T23:05:48.763Z,50.60
2019-05-26T23:08:17.333Z,50.60
2019-05-26T23:10:45.900Z,50.50
2019-05-26T23:13:14.532Z,50.90
2019-05-26T23:15:44.607Z,50.60
2019-05-26T23:18:13.221Z,51.40
2019-05-26T23:20:44.846Z,51.00
2019-05-26T23:23:13.447Z,50.40
2019-05-26T23:25:42.079Z,50.30
2019-05-26T23:28:10.675Z,50.90
2019-05-26T23:30:39.993Z,50.90
2019-05-26T23:33:08.545Z,51.30
2019-05-26T23:35:37.126Z,51.90
2019-05-26T23:38:05.673Z,51.20
2019-05-26T23:40:34.251Z,52.10
2019-05-26T23:43:04.190Z,51.90
2019-05-26T23:45:32.737Z,52.00
2019-05-26T23:48:01.228Z,51.70
2019-05-26T23:50:29.712Z,52.20
2019-05-26T23:52:59.055Z,52.70
2019-05-26T23:55:27.533Z,51.90
2019-05-26T23:57:56.101Z,52.10
